Terminal Aerodrome Forecast
Issued by NWS Topeka, KS

Home | Current Version | Previous Version | Graphics & Text | Print | Product List | Glossary On
Versions: 1 2 3 4 5 6 7 8 9 10 11 12 13 14 15 16 17 18 19
989
FTUS43 KTOP 132328
TAFTOP
TAF
KTOP 132328Z 1400/1424 11010KT P6SM BKN060
     FM141100 16007KT P6SM BKN025
     FM141400 23007KT P6SM SCT025 BKN050
     FM142100 31006KT P6SM BKN050=

USA.gov is the U.S. government's official web portal to all federal, state and local government web resources and services.